Vale, North Carolina
Current Conditions -  °F | °C
As of 1:08 PM on Monday 22 Dec 2014 (Local Time) from KHKY Reporting Station
Haze Haze  
Wind Chill: 31°   Ceiling: 400
Heat Index: 38°   Visibility: 2.5mi
Dew Point: 36°   Wind: 9mph
Humidity: 93%   Direction: 50°NE
Pressure: 30.04"   Gusts: NA
Location:  35.54°N, 81.43°W
Report Text: KHKY 221808Z 05008KT 2 1/2SM BR OVC004 03/02 A3004 RMK AO2 T00330022
Loading
Personal Weather Stations






























Interactive Weather Map New forecast layout! Learn more

10-Day Weather Forecast

Advertisements
Track Severe Weather on mobile